createdAt,value
2019-03-24T00:00:35.343Z,13.10
2019-03-24T00:01:18.611Z,12.73
2019-03-24T00:01:51.940Z,13.18
2019-03-24T00:02:25.159Z,12.95
2019-03-24T00:02:58.207Z,14.20
2019-03-24T00:03:31.224Z,12.70
2019-03-24T00:04:04.281Z,12.75
2019-03-24T00:04:37.708Z,13.55
2019-03-24T00:05:10.718Z,13.78
2019-03-24T00:05:43.740Z,13.95
2019-03-24T00:06:17.122Z,12.78
2019-03-24T00:06:50.524Z,12.90
2019-03-24T00:07:23.660Z,11.33
2019-03-24T00:07:56.938Z,12.90
2019-03-24T00:08:30.044Z,12.10
2019-03-24T00:09:05.496Z,12.58
2019-03-24T00:09:38.992Z,14.15
2019-03-24T00:10:12.203Z,12.75
2019-03-24T00:10:45.600Z,12.60
2019-03-24T00:11:18.984Z,12.90
2019-03-24T00:11:51.994Z,12.33
2019-03-24T00:12:25.364Z,11.40
2019-03-24T00:12:58.387Z,10.50
2019-03-24T00:13:31.792Z,12.20
2019-03-24T00:14:05.084Z,13.20
2019-03-24T00:14:38.104Z,11.63
2019-03-24T00:15:11.218Z,12.03
2019-03-24T00:15:44.247Z,11.30
2019-03-24T00:16:17.252Z,12.13
2019-03-24T00:16:50.258Z,12.80
2019-03-24T00:17:23.401Z,12.23
2019-03-24T00:17:56.418Z,12.78
2019-03-24T00:18:29.770Z,12.58
2019-03-24T00:19:03.179Z,11.53
2019-03-24T00:19:36.235Z,12.25
2019-03-24T00:20:10.405Z,11.70
2019-03-24T00:20:43.497Z,12.30
2019-03-24T00:21:16.514Z,12.18
2019-03-24T00:21:49.536Z,12.30
2019-03-24T00:22:22.568Z,11.10
2019-03-24T00:22:56.228Z,11.85
2019-03-24T00:23:29.230Z,10.78
2019-03-24T00:24:02.252Z,12.00
2019-03-24T00:24:35.326Z,11.12
2019-03-24T00:25:08.766Z,12.37
2019-03-24T00:25:41.783Z,11.73
2019-03-24T00:26:15.208Z,10.70
2019-03-24T00:26:48.601Z,10.95
2019-03-24T00:27:21.965Z,10.00
2019-03-24T00:27:54.984Z,10.45
2019-03-24T00:28:28.307Z,10.40
2019-03-24T00:29:01.312Z,10.50
2019-03-24T00:29:34.332Z,10.50
2019-03-24T00:30:10.395Z,11.75
2019-03-24T00:30:43.448Z,10.15
2019-03-24T00:31:16.761Z,9.65
2019-03-24T00:31:50.144Z,10.10
2019-03-24T00:32:23.490Z,9.85
2019-03-24T00:32:56.520Z,9.98
2019-03-24T00:33:29.530Z,10.35
2019-03-24T00:34:02.856Z,9.10
2019-03-24T00:34:35.876Z,10.18
2019-03-24T00:35:09.180Z,9.30
2019-03-24T00:35:42.192Z,8.30
2019-03-24T00:36:15.235Z,8.63
2019-03-24T00:36:48.256Z,8.88
2019-03-24T00:37:21.626Z,10.45
2019-03-24T00:37:55.020Z,8.80
2019-03-24T00:38:28.430Z,9.35
2019-03-24T00:39:01.990Z,8.38
2019-03-24T00:39:35.695Z,7.80
2019-03-24T00:40:09.113Z,8.60
2019-03-24T00:40:42.126Z,7.62
2019-03-24T00:41:15.424Z,7.78
2019-03-24T00:41:48.857Z,9.00
2019-03-24T00:42:21.861Z,8.10
2019-03-24T00:42:55.551Z,7.95
2019-03-24T00:43:28.550Z,8.63
2019-03-24T00:44:01.891Z,8.10
2019-03-24T00:44:35.287Z,8.53
2019-03-24T00:45:09.076Z,7.62
2019-03-24T00:45:42.498Z,7.17
2019-03-24T00:46:15.515Z,7.95
2019-03-24T00:46:48.916Z,8.30
2019-03-24T00:47:21.964Z,8.00
2019-03-24T00:47:54.985Z,9.98
2019-03-24T00:48:28.347Z,8.20
2019-03-24T00:49:01.357Z,8.53
2019-03-24T00:49:34.357Z,8.30
2019-03-24T00:50:07.612Z,7.70
2019-03-24T00:50:40.634Z,8.33
2019-03-24T00:51:13.652Z,8.45
2019-03-24T00:51:46.662Z,8.15
2019-03-24T00:52:19.670Z,7.78
2019-03-24T00:52:52.720Z,8.08
2019-03-24T00:53:26.128Z,8.93
2019-03-24T00:53:59.277Z,9.03
2019-03-24T00:54:32.279Z,8.60
2019-03-24T00:55:05.704Z,8.55
2019-03-24T00:55:38.715Z,8.75
2019-03-24T00:56:11.734Z,10.50
2019-03-24T00:56:44.756Z,8.33
2019-03-24T00:57:46.815Z,8.88
2019-03-24T00:58:19.863Z,8.90
2019-03-24T00:58:52.893Z,9.63
2019-03-24T00:59:25.899Z,8.85
2019-03-24T00:59:59.756Z,9.05
2019-03-24T01:00:47.235Z,8.95
2019-03-24T01:01:20.948Z,10.65
2019-03-24T01:01:53.954Z,9.45
2019-03-24T01:02:26.973Z,8.90
2019-03-24T01:02:59.977Z,8.33
2019-03-24T01:03:33.043Z,8.95
2019-03-24T01:04:06.092Z,8.38
2019-03-24T01:04:39.407Z,9.05
2019-03-24T01:05:12.810Z,9.70
2019-03-24T01:05:46.410Z,9.60
2019-03-24T01:06:19.448Z,8.50
2019-03-24T01:06:52.542Z,9.15
2019-03-24T01:07:25.655Z,9.33
2019-03-24T01:07:58.663Z,9.75
2019-03-24T01:08:31.679Z,9.75
2019-03-24T01:09:07.002Z,8.98
2019-03-24T01:09:40.006Z,9.55
2019-03-24T01:10:13.445Z,9.88
2019-03-24T01:10:46.464Z,10.13
2019-03-24T01:11:19.484Z,10.25
2019-03-24T01:11:52.889Z,11.10
2019-03-24T01:12:26.668Z,9.53
2019-03-24T01:13:00.049Z,9.93
2019-03-24T01:13:33.459Z,10.15
2019-03-24T01:14:07.242Z,10.13
2019-03-24T01:14:41.020Z,9.58
2019-03-24T01:15:14.707Z,8.48
2019-03-24T01:15:48.293Z,10.65
2019-03-24T01:16:21.604Z,9.78
2019-03-24T01:16:54.628Z,8.90
2019-03-24T01:17:27.674Z,9.75
2019-03-24T01:18:01.121Z,9.98
2019-03-24T01:18:34.507Z,9.78
2019-03-24T01:19:07.894Z,9.33
2019-03-24T01:19:40.908Z,10.00
2019-03-24T01:20:13.949Z,9.35
2019-03-24T01:20:47.306Z,10.55
2019-03-24T01:21:20.684Z,8.73
2019-03-24T01:21:54.060Z,9.05
2019-03-24T01:22:28.158Z,7.30
2019-03-24T01:23:01.174Z,8.83
2019-03-24T01:23:34.524Z,8.45
2019-03-24T01:24:07.562Z,8.88
2019-03-24T01:24:40.580Z,9.58
2019-03-24T01:25:13.593Z,7.83
2019-03-24T01:25:46.723Z,8.73
2019-03-24T01:26:19.734Z,9.43
2019-03-24T01:26:52.757Z,8.68
2019-03-24T01:27:26.156Z,8.95
2019-03-24T01:27:59.543Z,7.75
2019-03-24T01:28:32.937Z,7.87
2019-03-24T01:29:06.339Z,7.83
2019-03-24T01:29:39.815Z,8.90
2019-03-24T01:30:13.588Z,9.35
2019-03-24T01:30:46.608Z,8.93
2019-03-24T01:31:19.752Z,8.55
2019-03-24T01:31:52.769Z,9.13
2019-03-24T01:32:25.788Z,8.28
2019-03-24T01:32:59.206Z,9.13
2019-03-24T01:33:32.215Z,7.80
2019-03-24T01:34:05.510Z,8.50
2019-03-24T01:34:38.531Z,9.48
2019-03-24T01:35:11.766Z,8.30
2019-03-24T01:35:45.184Z,7.72
2019-03-24T01:36:18.562Z,8.93
2019-03-24T01:36:51.623Z,7.95
2019-03-24T01:37:24.633Z,7.75
2019-03-24T01:37:58.100Z,8.65
2019-03-24T01:38:31.210Z,9.55
2019-03-24T01:39:05.734Z,7.28
2019-03-24T01:39:39.130Z,8.28
2019-03-24T01:40:12.447Z,8.68
2019-03-24T01:40:45.565Z,7.85
2019-03-24T01:41:18.581Z,7.55
2019-03-24T01:41:51.587Z,9.13
2019-03-24T01:42:24.650Z,8.63
2019-03-24T01:42:57.923Z,8.63
2019-03-24T01:43:30.930Z,8.73
2019-03-24T01:44:03.978Z,9.08
2019-03-24T01:44:36.986Z,9.08
2019-03-24T01:45:10.731Z,7.55
2019-03-24T01:45:43.727Z,8.10
2019-03-24T01:46:16.747Z,9.65
2019-03-24T01:46:49.770Z,8.30
2019-03-24T01:47:22.793Z,8.85
2019-03-24T01:47:55.855Z,8.75
2019-03-24T01:48:28.872Z,9.18
2019-03-24T01:49:01.884Z,8.13
2019-03-24T01:49:34.886Z,8.95
2019-03-24T01:50:08.466Z,8.70
2019-03-24T01:50:41.493Z,8.15
2019-03-24T01:51:14.508Z,8.43
2019-03-24T01:51:47.934Z,9.20
2019-03-24T01:52:20.943Z,8.83
2019-03-24T01:52:53.972Z,9.40
2019-03-24T01:53:27.022Z,8.45
2019-03-24T01:54:00.052Z,8.98
2019-03-24T01:54:33.058Z,9.15
2019-03-24T01:55:07.896Z,8.55
2019-03-24T01:55:40.926Z,8.45
2019-03-24T01:56:13.945Z,9.20
2019-03-24T01:56:46.951Z,8.13
2019-03-24T01:57:19.962Z,9.75
2019-03-24T01:57:53.058Z,9.58
2019-03-24T01:58:26.353Z,9.05
2019-03-24T01:58:59.390Z,9.70
2019-03-24T01:59:32.417Z,9.15
2019-03-24T02:00:06.463Z,8.25
2019-03-24T02:00:39.782Z,8.90
2019-03-24T02:01:12.801Z,9.45
2019-03-24T02:01:45.816Z,9.38
2019-03-24T02:02:18.820Z,9.33
2019-03-24T02:02:51.840Z,8.70
2019-03-24T02:03:25.574Z,9.58
2019-03-24T02:03:58.964Z,8.50
2019-03-24T02:04:32.532Z,9.08
2019-03-24T02:05:05.864Z,8.40
2019-03-24T02:05:38.875Z,9.20
2019-03-24T02:06:11.899Z,8.75
2019-03-24T02:06:44.928Z,8.75
2019-03-24T02:07:17.940Z,9.28
2019-03-24T02:07:51.364Z,8.80
2019-03-24T02:08:24.692Z,9.83
2019-03-24T02:08:57.698Z,10.20
2019-03-24T02:09:30.731Z,9.35
2019-03-24T02:10:05.069Z,10.00
2019-03-24T02:10:38.078Z,10.08
2019-03-24T02:11:11.086Z,10.10
2019-03-24T02:11:44.113Z,10.45
2019-03-24T02:12:17.136Z,9.23
2019-03-24T02:12:50.157Z,9.90
2019-03-24T02:13:23.175Z,8.98
2019-03-24T02:13:56.212Z,8.50
2019-03-24T02:14:29.563Z,10.20
2019-03-24T02:15:02.579Z,9.73
2019-03-24T02:15:35.611Z,9.93
2019-03-24T02:16:09.508Z,10.50
2019-03-24T02:16:42.852Z,9.10
2019-03-24T02:17:16.259Z,9.48
2019-03-24T02:17:49.271Z,9.65
2019-03-24T02:18:22.609Z,9.33
2019-03-24T02:18:55.616Z,10.70
2019-03-24T02:19:28.641Z,8.98
2019-03-24T02:20:01.650Z,10.70
2019-03-24T02:20:34.670Z,9.73
2019-03-24T02:21:07.698Z,10.80
2019-03-24T02:21:41.091Z,10.50
2019-03-24T02:22:14.106Z,9.58
2019-03-24T02:22:47.367Z,10.32
2019-03-24T02:23:20.385Z,9.55
2019-03-24T02:23:53.404Z,9.75
2019-03-24T02:24:26.858Z,10.08
2019-03-24T02:25:00.395Z,10.10
2019-03-24T02:25:33.888Z,10.28
2019-03-24T02:26:07.610Z,8.48
2019-03-24T02:26:40.667Z,10.95
2019-03-24T02:27:14.063Z,10.75
2019-03-24T02:27:47.072Z,10.43
2019-03-24T02:28:20.086Z,9.65
2019-03-24T02:28:53.386Z,11.48
2019-03-24T02:29:26.416Z,10.68
2019-03-24T02:29:59.437Z,9.83
2019-03-24T02:30:32.757Z,10.30
2019-03-24T02:31:07.146Z,9.88
2019-03-24T02:31:40.164Z,8.95
2019-03-24T02:32:13.225Z,10.78
2019-03-24T02:32:46.697Z,10.50
2019-03-24T02:33:19.716Z,11.03
2019-03-24T02:33:52.728Z,11.38
2019-03-24T02:34:26.124Z,9.95
2019-03-24T02:34:59.087Z,10.50
2019-03-24T02:35:32.442Z,9.50
2019-03-24T02:36:05.769Z,9.38
2019-03-24T02:36:39.127Z,10.05
2019-03-24T02:37:12.498Z,9.13
2019-03-24T02:37:45.545Z,9.45
2019-03-24T02:38:19.266Z,10.65
2019-03-24T02:38:52.284Z,9.38
2019-03-24T02:39:26.056Z,10.00
2019-03-24T02:39:59.091Z,10.90
2019-03-24T02:40:32.101Z,10.18
2019-03-24T02:41:05.105Z,9.73
2019-03-24T02:41:38.133Z,10.58
2019-03-24T02:42:11.524Z,11.25
2019-03-24T02:42:44.515Z,10.15
2019-03-24T02:43:17.928Z,10.20
2019-03-24T02:43:50.956Z,9.20
2019-03-24T02:44:24.632Z,9.68
2019-03-24T02:44:57.652Z,11.03
2019-03-24T02:45:30.780Z,10.10
2019-03-24T02:46:04.199Z,9.90
2019-03-24T02:46:37.547Z,11.05
2019-03-24T02:47:10.540Z,10.30
2019-03-24T02:47:43.569Z,9.88
2019-03-24T02:48:16.670Z,9.93
2019-03-24T02:48:49.863Z,10.55
2019-03-24T02:49:23.228Z,11.18
2019-03-24T02:49:56.239Z,10.93
2019-03-24T02:50:29.262Z,10.58
2019-03-24T02:51:02.271Z,10.43
2019-03-24T02:51:35.640Z,10.28
2019-03-24T02:52:08.642Z,10.88
2019-03-24T02:52:41.666Z,10.08
2019-03-24T02:53:14.693Z,10.13
2019-03-24T02:53:47.794Z,11.08
2019-03-24T02:54:20.903Z,10.30
2019-03-24T02:54:53.919Z,11.38
2019-03-24T02:55:27.668Z,11.18
2019-03-24T02:56:00.696Z,10.60
2019-03-24T02:56:33.713Z,10.10
2019-03-24T02:57:06.725Z,11.18
2019-03-24T02:57:39.742Z,11.40
2019-03-24T02:58:13.052Z,10.28
2019-03-24T02:58:46.073Z,10.53
2019-03-24T02:59:19.092Z,10.25
2019-03-24T02:59:52.481Z,10.60
2019-03-24T03:00:25.509Z,11.15
2019-03-24T03:00:58.840Z,12.20
2019-03-24T03:01:32.260Z,10.68
2019-03-24T03:02:05.282Z,10.03
2019-03-24T03:02:38.683Z,11.10
2019-03-24T03:03:11.713Z,11.78
2019-03-24T03:03:44.734Z,11.05
2019-03-24T03:04:18.118Z,10.65
2019-03-24T03:04:51.137Z,10.95
2019-03-24T03:05:24.176Z,10.40
2019-03-24T03:05:57.198Z,11.57
2019-03-24T03:06:30.276Z,10.65
2019-03-24T03:07:03.508Z,11.90
2019-03-24T03:07:36.919Z,10.98
2019-03-24T03:08:09.941Z,10.80
2019-03-24T03:08:43.389Z,11.05
2019-03-24T03:09:16.378Z,11.45
2019-03-24T03:09:49.391Z,12.20
2019-03-24T03:10:22.419Z,11.10
2019-03-24T03:10:55.788Z,11.10
2019-03-24T03:11:29.230Z,11.25
2019-03-24T03:12:02.244Z,11.63
2019-03-24T03:12:35.592Z,10.40
2019-03-24T03:13:08.623Z,10.43
2019-03-24T03:13:41.642Z,10.53
2019-03-24T03:14:15.011Z,11.38
2019-03-24T03:14:48.023Z,10.23
2019-03-24T03:15:21.065Z,11.60
2019-03-24T03:15:54.134Z,10.75
2019-03-24T03:16:37.791Z,11.00
2019-03-24T03:17:02.364Z,11.75
2019-03-24T03:17:35.386Z,11.68
2019-03-24T03:18:08.733Z,11.18
2019-03-24T03:18:42.072Z,11.22
2019-03-24T03:19:15.081Z,11.03
2019-03-24T03:19:48.140Z,10.05
2019-03-24T03:20:21.162Z,10.40
2019-03-24T03:20:54.188Z,10.98
2019-03-24T03:21:27.210Z,11.10
2019-03-24T03:22:00.245Z,12.28
2019-03-24T03:22:33.271Z,11.60
2019-03-24T03:23:06.555Z,10.53
2019-03-24T03:23:40.372Z,9.78
2019-03-24T03:24:13.392Z,11.03
2019-03-24T03:24:46.409Z,11.15
2019-03-24T03:25:19.432Z,10.58
2019-03-24T03:25:52.425Z,11.35
2019-03-24T03:26:25.446Z,11.97
2019-03-24T03:26:58.799Z,11.83
2019-03-24T03:27:32.282Z,12.00
2019-03-24T03:28:05.286Z,10.90
2019-03-24T03:28:38.311Z,11.88
2019-03-24T03:29:11.373Z,11.68
2019-03-24T03:29:44.687Z,11.68
2019-03-24T03:30:18.224Z,11.85
2019-03-24T03:30:51.230Z,10.78
2019-03-24T03:31:24.250Z,10.80
2019-03-24T03:31:57.673Z,11.45
2019-03-24T03:32:30.713Z,10.82
2019-03-24T03:33:04.042Z,11.18
2019-03-24T03:33:37.483Z,9.65
2019-03-24T03:34:10.506Z,10.82
2019-03-24T03:34:43.815Z,11.57
2019-03-24T03:35:16.856Z,10.30
2019-03-24T03:35:49.855Z,11.38
2019-03-24T03:36:22.878Z,11.08
2019-03-24T03:36:56.341Z,11.30
2019-03-24T03:37:29.355Z,11.30
2019-03-24T03:38:02.381Z,9.95
2019-03-24T03:38:35.453Z,10.20
2019-03-24T03:39:08.479Z,10.68
2019-03-24T03:39:41.486Z,9.85
2019-03-24T03:40:14.607Z,10.55
2019-03-24T03:40:48.103Z,10.23
2019-03-24T03:41:21.124Z,10.70
2019-03-24T03:41:54.436Z,11.18
2019-03-24T03:42:28.013Z,9.98
2019-03-24T03:43:01.034Z,10.75
2019-03-24T03:43:34.305Z,11.28
2019-03-24T03:44:07.369Z,10.48
2019-03-24T03:44:40.387Z,11.03
2019-03-24T03:45:17.495Z,10.55
2019-03-24T03:45:50.521Z,11.00
2019-03-24T03:46:23.936Z,8.80
2019-03-24T03:46:56.953Z,11.05
2019-03-24T03:47:30.303Z,10.58
2019-03-24T03:48:03.316Z,11.00
2019-03-24T03:48:36.640Z,10.85
2019-03-24T03:49:09.652Z,10.32
2019-03-24T03:49:42.987Z,10.82
2019-03-24T03:50:16.022Z,10.58
2019-03-24T03:50:49.052Z,10.80
2019-03-24T03:51:22.072Z,10.68
2019-03-24T03:51:55.385Z,11.12
2019-03-24T03:52:28.392Z,10.90
2019-03-24T03:53:01.511Z,10.82
2019-03-24T03:53:34.824Z,9.83
2019-03-24T03:54:07.839Z,9.93
2019-03-24T03:54:41.184Z,10.63
2019-03-24T03:55:14.226Z,10.70
2019-03-24T03:55:47.231Z,9.33
2019-03-24T03:56:20.256Z,10.68
2019-03-24T03:56:53.715Z,10.15
2019-03-24T03:57:26.741Z,10.75
2019-03-24T03:58:00.044Z,10.53
2019-03-24T03:58:33.454Z,10.28
2019-03-24T03:59:06.808Z,10.32
2019-03-24T03:59:39.832Z,11.10
2019-03-24T04:00:13.060Z,10.70
2019-03-24T04:00:46.107Z,9.95
2019-03-24T04:01:19.408Z,9.98
2019-03-24T04:01:53.107Z,10.13
2019-03-24T04:02:26.121Z,10.78
2019-03-24T04:02:59.145Z,10.00
2019-03-24T04:03:32.159Z,8.70
2019-03-24T04:04:05.544Z,9.90
2019-03-24T04:04:38.551Z,10.08
2019-03-24T04:05:11.573Z,9.13
2019-03-24T04:05:44.589Z,9.95
2019-03-24T04:06:18.073Z,10.60
2019-03-24T04:06:51.104Z,10.80
2019-03-24T04:07:24.119Z,11.85
2019-03-24T04:07:57.612Z,10.75
2019-03-24T04:08:30.940Z,10.30
2019-03-24T04:09:06.070Z,10.43
2019-03-24T04:09:39.086Z,9.50
2019-03-24T04:10:12.517Z,9.88
2019-03-24T04:10:45.529Z,9.60
2019-03-24T04:11:18.545Z,11.35
2019-03-24T04:11:51.920Z,10.15
2019-03-24T04:12:25.348Z,10.58
2019-03-24T04:12:58.373Z,10.25
2019-03-24T04:13:31.388Z,10.68
2019-03-24T04:14:04.612Z,10.10
2019-03-24T04:14:37.816Z,9.48
2019-03-24T04:15:10.956Z,10.75
2019-03-24T04:15:44.611Z,10.85
2019-03-24T04:16:17.764Z,10.85
2019-03-24T04:16:51.181Z,9.68
2019-03-24T04:17:24.212Z,9.90
2019-03-24T04:17:57.228Z,10.50
2019-03-24T04:18:30.261Z,10.45
2019-03-24T04:19:03.269Z,9.88
2019-03-24T04:19:36.677Z,10.15
2019-03-24T04:20:09.803Z,9.60
2019-03-24T04:20:42.826Z,9.15
2019-03-24T04:21:15.845Z,10.30
2019-03-24T04:21:48.866Z,10.55
2019-03-24T04:22:21.910Z,9.25
2019-03-24T04:22:55.596Z,10.78
2019-03-24T04:23:28.994Z,10.50
2019-03-24T04:24:02.011Z,10.15
2019-03-24T04:24:35.021Z,10.58
2019-03-24T04:25:08.084Z,9.43
2019-03-24T04:25:41.101Z,10.05
2019-03-24T04:26:14.103Z,11.65
2019-03-24T04:26:48.341Z,9.80
2019-03-24T04:27:21.360Z,9.65
2019-03-24T04:27:54.366Z,9.38
2019-03-24T04:28:27.416Z,10.20
2019-03-24T04:29:00.879Z,10.53
2019-03-24T04:29:33.904Z,10.00
2019-03-24T04:30:08.765Z,9.63
2019-03-24T04:30:41.781Z,9.73
2019-03-24T04:31:15.062Z,10.30
2019-03-24T04:31:48.078Z,9.90
2019-03-24T04:32:21.092Z,10.00
2019-03-24T04:32:54.455Z,10.70
2019-03-24T04:33:27.819Z,9.93
2019-03-24T04:34:01.592Z,9.05
2019-03-24T04:34:34.587Z,9.65
2019-03-24T04:35:08.171Z,10.58
2019-03-24T04:35:41.583Z,9.78
2019-03-24T04:36:14.966Z,10.88
2019-03-24T04:36:48.422Z,9.60
2019-03-24T04:37:21.443Z,9.28
2019-03-24T04:37:54.481Z,10.08
2019-03-24T04:38:27.500Z,9.63
2019-03-24T04:39:00.863Z,9.08
2019-03-24T04:39:34.220Z,10.03
2019-03-24T04:40:07.365Z,10.10
2019-03-24T04:40:40.384Z,9.80
2019-03-24T04:41:13.470Z,9.50
2019-03-24T04:41:46.505Z,9.88
2019-03-24T04:42:19.911Z,10.50
2019-03-24T04:42:52.930Z,9.55
2019-03-24T04:43:25.970Z,10.93
2019-03-24T04:43:58.993Z,11.10
2019-03-24T04:44:31.997Z,9.43
2019-03-24T04:45:05.964Z,9.15
2019-03-24T04:45:38.983Z,9.88
2019-03-24T04:46:12.358Z,9.03
2019-03-24T04:46:45.375Z,8.50
2019-03-24T04:47:18.396Z,10.90
2019-03-24T04:47:51.400Z,10.20
2019-03-24T04:48:24.406Z,10.00
2019-03-24T04:48:57.841Z,8.48
2019-03-24T04:49:31.235Z,10.18
2019-03-24T04:50:05.232Z,10.25
2019-03-24T04:50:38.367Z,9.65
2019-03-24T04:51:11.366Z,9.23
2019-03-24T04:51:44.768Z,10.90
2019-03-24T04:52:18.550Z,9.48
2019-03-24T04:52:51.581Z,9.58
2019-03-24T04:53:24.610Z,9.58
2019-03-24T04:53:57.628Z,10.88
2019-03-24T04:54:30.934Z,11.90
2019-03-24T04:55:04.460Z,10.35
2019-03-24T04:55:37.819Z,9.90
2019-03-24T04:56:10.866Z,10.78
2019-03-24T04:56:43.888Z,8.95
2019-03-24T04:57:17.292Z,10.10
2019-03-24T04:57:50.322Z,11.00
2019-03-24T04:58:23.729Z,10.25
2019-03-24T04:58:56.760Z,10.50
2019-03-24T04:59:29.861Z,9.40
2019-03-24T05:00:03.648Z,9.00
2019-03-24T05:00:39.144Z,10.70
2019-03-24T05:01:12.915Z,9.70
2019-03-24T05:01:46.391Z,10.70
2019-03-24T05:02:19.769Z,9.30
2019-03-24T05:02:53.140Z,10.90
2019-03-24T05:03:26.158Z,9.18
2019-03-24T05:03:59.159Z,9.18
2019-03-24T05:04:32.176Z,9.70
2019-03-24T05:05:05.507Z,9.45
2019-03-24T05:05:39.401Z,8.95
2019-03-24T05:06:12.736Z,9.35
2019-03-24T05:06:46.747Z,10.43
2019-03-24T05:07:20.746Z,10.00
2019-03-24T05:07:54.052Z,9.05
2019-03-24T05:08:28.070Z,9.75
2019-03-24T05:09:01.298Z,11.03
2019-03-24T05:09:35.790Z,10.63
2019-03-24T05:10:14.783Z,9.93
2019-03-24T05:10:47.805Z,9.45
2019-03-24T05:11:21.669Z,9.98
2019-03-24T05:11:54.731Z,9.55
2019-03-24T05:12:27.740Z,10.10
2019-03-24T05:13:00.831Z,10.65
2019-03-24T05:13:33.852Z,9.03
2019-03-24T05:14:06.876Z,9.60
2019-03-24T05:14:40.344Z,9.88
2019-03-24T05:15:13.670Z,10.05
2019-03-24T05:15:47.092Z,9.50
2019-03-24T05:16:20.120Z,9.90
2019-03-24T05:16:53.141Z,9.93
2019-03-24T05:17:27.224Z,9.88
2019-03-24T05:18:01.044Z,8.90
2019-03-24T05:18:34.788Z,8.43
2019-03-24T05:19:08.176Z,9.00
2019-03-24T05:19:41.556Z,8.70
2019-03-24T05:20:14.573Z,9.20
2019-03-24T05:20:47.597Z,10.18
2019-03-24T05:21:20.601Z,9.05
2019-03-24T05:21:53.628Z,9.05
2019-03-24T05:22:27.053Z,9.53
2019-03-24T05:23:00.103Z,8.73
2019-03-24T05:23:33.107Z,9.45
2019-03-24T05:24:06.138Z,9.25
2019-03-24T05:24:39.533Z,9.03
2019-03-24T05:25:12.553Z,8.80
2019-03-24T05:25:45.558Z,8.88
2019-03-24T05:26:18.579Z,10.25
2019-03-24T05:26:51.587Z,9.48
2019-03-24T05:27:24.931Z,9.00
2019-03-24T05:27:57.934Z,9.78
2019-03-24T05:28:30.990Z,9.35
2019-03-24T05:29:04.008Z,8.78
2019-03-24T05:29:37.011Z,8.80
2019-03-24T05:30:10.843Z,9.73
2019-03-24T05:30:44.188Z,10.78
2019-03-24T05:31:17.194Z,9.58
2019-03-24T05:31:50.617Z,10.18
2019-03-24T05:32:24.029Z,9.80
2019-03-24T05:32:57.052Z,9.48
2019-03-24T05:33:30.065Z,10.28
2019-03-24T05:34:03.495Z,9.58
2019-03-24T05:34:36.794Z,10.72
2019-03-24T05:35:10.940Z,9.40
2019-03-24T05:35:44.738Z,9.83
2019-03-24T05:36:18.119Z,10.05
2019-03-24T05:36:51.151Z,9.75
2019-03-24T05:37:24.176Z,10.05
2019-03-24T05:37:57.191Z,10.35
2019-03-24T05:38:30.207Z,10.38
2019-03-24T05:39:04.815Z,10.45
2019-03-24T05:39:38.379Z,11.10
2019-03-24T05:40:11.504Z,11.78
2019-03-24T05:40:44.511Z,11.45
2019-03-24T05:41:17.536Z,10.28
2019-03-24T05:41:50.847Z,12.85
2019-03-24T05:42:23.854Z,11.93
2019-03-24T05:42:57.212Z,13.03
2019-03-24T05:43:30.236Z,12.05
2019-03-24T05:44:03.749Z,11.93
2019-03-24T05:44:36.758Z,10.95
2019-03-24T05:45:10.228Z,11.97
2019-03-24T05:45:43.571Z,13.15
2019-03-24T05:46:16.851Z,9.83
2019-03-24T05:46:49.862Z,14.15
2019-03-24T05:47:22.874Z,10.28
2019-03-24T05:47:55.897Z,11.60
2019-03-24T05:48:29.290Z,10.60
2019-03-24T05:49:02.323Z,11.48
2019-03-24T05:49:35.344Z,11.00
2019-03-24T05:50:08.668Z,10.60
2019-03-24T05:50:41.702Z,11.18
2019-03-24T05:51:14.724Z,11.45
2019-03-24T05:51:47.730Z,10.75
2019-03-24T05:52:21.193Z,9.83
2019-03-24T05:52:54.200Z,10.20
2019-03-24T05:53:27.221Z,10.45
2019-03-24T05:54:00.230Z,9.00
2019-03-24T05:54:34.011Z,9.85
2019-03-24T05:55:07.324Z,9.35
2019-03-24T05:55:40.310Z,10.60
2019-03-24T05:56:13.350Z,9.58
2019-03-24T05:56:46.376Z,10.05
2019-03-24T05:57:19.686Z,9.50
2019-03-24T05:57:52.691Z,10.00
2019-03-24T05:58:26.047Z,10.00
2019-03-24T05:58:59.096Z,9.10
2019-03-24T05:59:32.132Z,9.45
2019-03-24T06:00:06.004Z,9.18
2019-03-24T06:00:39.013Z,9.95
2019-03-24T06:01:12.023Z,9.75
2019-03-24T06:01:45.066Z,9.10
2019-03-24T06:02:18.087Z,9.38
2019-03-24T06:02:51.101Z,9.18
2019-03-24T06:03:24.199Z,8.60
2019-03-24T06:03:57.217Z,8.50
2019-03-24T06:04:30.229Z,8.70
2019-03-24T06:05:03.243Z,9.90
2019-03-24T06:05:36.955Z,8.33
2019-03-24T06:06:09.980Z,9.33
2019-03-24T06:06:43.078Z,8.30
2019-03-24T06:07:16.140Z,8.25
2019-03-24T06:07:49.146Z,7.85
2019-03-24T06:08:22.560Z,9.65
2019-03-24T06:08:55.573Z,7.42
2019-03-24T06:09:28.948Z,8.73
2019-03-24T06:10:02.091Z,7.42
2019-03-24T06:10:35.106Z,8.13
2019-03-24T06:11:08.132Z,8.50
2019-03-24T06:11:41.140Z,7.65
2019-03-24T06:12:14.166Z,8.08
2019-03-24T06:12:47.220Z,7.58
2019-03-24T06:13:20.240Z,7.95
2019-03-24T06:13:53.268Z,9.05
2019-03-24T06:14:26.691Z,9.28
2019-03-24T06:14:59.722Z,7.55
2019-03-24T06:15:32.865Z,7.80
2019-03-24T06:16:05.889Z,8.20
2019-03-24T06:16:38.900Z,8.28
2019-03-24T06:17:11.931Z,7.22
2019-03-24T06:17:48.085Z,8.68
2019-03-24T06:18:20.220Z,7.78
2019-03-24T06:18:53.240Z,7.58
2019-03-24T06:19:26.250Z,7.80
2019-03-24T06:19:59.568Z,8.33
2019-03-24T06:20:33.076Z,8.53
2019-03-24T06:21:06.449Z,7.85
2019-03-24T06:21:39.458Z,7.45
2019-03-24T06:22:12.482Z,7.53
2019-03-24T06:22:45.492Z,7.80
2019-03-24T06:23:18.890Z,8.88
2019-03-24T06:23:51.936Z,8.30
2019-03-24T06:24:24.956Z,7.50
2019-03-24T06:24:57.978Z,7.70
2019-03-24T06:25:31.004Z,8.38
2019-03-24T06:26:04.428Z,7.83
2019-03-24T06:26:37.444Z,7.33
2019-03-24T06:27:10.450Z,7.00
2019-03-24T06:27:43.761Z,7.25
2019-03-24T06:28:17.138Z,7.35
2019-03-24T06:28:50.542Z,8.10
2019-03-24T06:29:24.304Z,6.97
2019-03-24T06:29:57.320Z,7.33
2019-03-24T06:30:31.103Z,8.15
2019-03-24T06:31:04.484Z,7.95
2019-03-24T06:31:37.892Z,6.40
2019-03-24T06:32:11.222Z,7.87
2019-03-24T06:32:44.612Z,7.03
2019-03-24T06:33:17.614Z,7.78
2019-03-24T06:33:50.635Z,6.80
2019-03-24T06:34:23.650Z,7.92
2019-03-24T06:34:56.713Z,7.58
2019-03-24T06:35:30.007Z,7.00
2019-03-24T06:36:03.032Z,7.72
2019-03-24T06:36:36.031Z,7.55
2019-03-24T06:37:09.418Z,8.05
2019-03-24T06:37:42.820Z,7.40
2019-03-24T06:38:15.856Z,7.87
2019-03-24T06:38:48.879Z,8.43
2019-03-24T06:39:21.898Z,6.85
2019-03-24T06:39:54.920Z,7.10
2019-03-24T06:40:27.973Z,7.37
2019-03-24T06:41:00.999Z,7.62
2019-03-24T06:41:34.012Z,8.60
2019-03-24T06:42:07.036Z,7.47
2019-03-24T06:42:40.131Z,7.80
2019-03-24T06:43:13.474Z,8.63
2019-03-24T06:43:46.826Z,7.55
2019-03-24T06:44:20.220Z,7.60
2019-03-24T06:44:53.230Z,7.72
2019-03-24T06:45:28.648Z,6.75
2019-03-24T06:46:01.088Z,7.90
2019-03-24T06:46:34.443Z,7.08
2019-03-24T06:47:08.160Z,7.10
2019-03-24T06:47:41.541Z,6.58
2019-03-24T06:48:14.660Z,7.00
2019-03-24T06:48:48.118Z,7.83
2019-03-24T06:49:21.487Z,8.15
2019-03-24T06:49:54.503Z,7.75
2019-03-24T06:50:27.604Z,7.50
2019-03-24T06:51:01.228Z,6.62
2019-03-24T06:51:34.269Z,7.47
2019-03-24T06:52:07.345Z,7.35
2019-03-24T06:52:40.652Z,7.40
2019-03-24T06:53:13.664Z,7.05
2019-03-24T06:53:46.998Z,7.15
2019-03-24T06:54:20.016Z,6.40
2019-03-24T06:54:53.026Z,7.37
2019-03-24T06:55:26.034Z,7.55
2019-03-24T06:55:59.422Z,7.65
2019-03-24T06:56:32.792Z,6.80
2019-03-24T06:57:06.135Z,6.65
2019-03-24T06:57:39.488Z,6.95
2019-03-24T06:58:12.839Z,6.22
2019-03-24T06:58:45.885Z,7.05
2019-03-24T06:59:18.934Z,6.70
2019-03-24T06:59:52.000Z,6.53
2019-03-24T07:00:25.010Z,6.90
2019-03-24T07:00:58.439Z,7.83
2019-03-24T07:01:31.836Z,5.53
2019-03-24T07:02:05.188Z,6.35
2019-03-24T07:02:38.237Z,6.47
2019-03-24T07:03:11.253Z,6.90
2019-03-24T07:03:44.382Z,5.95
2019-03-24T07:04:17.390Z,6.70
2019-03-24T07:04:50.408Z,6.55
2019-03-24T07:05:23.871Z,5.35
2019-03-24T07:05:57.214Z,6.35
2019-03-24T07:06:30.633Z,6.35
2019-03-24T07:07:03.937Z,7.65
2019-03-24T07:07:36.964Z,6.35
2019-03-24T07:08:09.994Z,6.62
2019-03-24T07:08:43.014Z,6.85
2019-03-24T07:09:16.040Z,7.50
2019-03-24T07:09:49.069Z,7.58
2019-03-24T07:10:22.396Z,6.60
2019-03-24T07:10:55.756Z,6.70
2019-03-24T07:11:28.780Z,7.33
2019-03-24T07:12:01.814Z,7.00
2019-03-24T07:12:34.814Z,6.40
2019-03-24T07:13:07.818Z,6.97
2019-03-24T07:13:41.257Z,6.70
2019-03-24T07:14:14.584Z,6.90
2019-03-24T07:14:47.880Z,6.37
2019-03-24T07:15:20.879Z,7.35
2019-03-24T07:15:53.899Z,8.13
2019-03-24T07:16:27.286Z,6.78
2019-03-24T07:17:00.316Z,6.47
2019-03-24T07:17:33.318Z,7.00